sensor_id;sensor_type;location;lat;lon;timestamp;temperature;humidity
1259;DHT22;619;51.472;6.628;2023-06-22T00:01:27;26.70;61.80
1259;DHT22;619;51.472;6.628;2023-06-22T00:03:55;26.70;61.90
1259;DHT22;619;51.472;6.628;2023-06-22T00:06:20;26.70;62.00
1259;DHT22;619;51.472;6.628;2023-06-22T00:08:48;26.70;61.90
1259;DHT22;619;51.472;6.628;2023-06-22T00:11:19;26.80;62.10
1259;DHT22;619;51.472;6.628;2023-06-22T00:13:48;26.70;62.00
1259;DHT22;619;51.472;6.628;2023-06-22T00:16:14;26.70;62.10
1259;DHT22;619;51.472;6.628;2023-06-22T00:18:39;26.70;62.20
1259;DHT22;619;51.472;6.628;2023-06-22T00:21:12;26.70;62.20
1259;DHT22;619;51.472;6.628;2023-06-22T00:23:37;26.80;62.30
1259;DHT22;619;51.472;6.628;2023-06-22T00:26:03;26.80;62.40
1259;DHT22;619;51.472;6.628;2023-06-22T00:28:29;26.80;62.20
1259;DHT22;619;51.472;6.628;2023-06-22T00:30:54;26.80;62.30
1259;DHT22;619;51.472;6.628;2023-06-22T00:33:20;26.80;62.50
1259;DHT22;619;51.472;6.628;2023-06-22T00:35:46;26.80;62.50
1259;DHT22;619;51.472;6.628;2023-06-22T00:38:16;26.90;62.70
1259;DHT22;619;51.472;6.628;2023-06-22T00:40:41;26.80;62.70
1259;DHT22;619;51.472;6.628;2023-06-22T00:43:07;26.80;62.60
1259;DHT22;619;51.472;6.628;2023-06-22T00:45:35;26.80;62.60
1259;DHT22;619;51.472;6.628;2023-06-22T00:48:03;26.80;63.00
1259;DHT22;619;51.472;6.628;2023-06-22T00:50:34;26.80;62.90
1259;DHT22;619;51.472;6.628;2023-06-22T00:53:05;26.80;63.00
1259;DHT22;619;51.472;6.628;2023-06-22T00:55:44;26.70;62.90
1259;DHT22;619;51.472;6.628;2023-06-22T00:58:15;26.70;63.30
1259;DHT22;619;51.472;6.628;2023-06-22T01:00:49;26.60;63.40
1259;DHT22;619;51.472;6.628;2023-06-22T01:03:15;26.60;63.50
1259;DHT22;619;51.472;6.628;2023-06-22T01:05:42;26.50;63.70
1259;DHT22;619;51.472;6.628;2023-06-22T01:11:08;26.40;64.20
1259;DHT22;619;51.472;6.628;2023-06-22T01:13:50;26.40;64.30
1259;DHT22;619;51.472;6.628;2023-06-22T01:16:36;26.40;64.60
1259;DHT22;619;51.472;6.628;2023-06-22T01:19:20;26.30;64.80
1259;DHT22;619;51.472;6.628;2023-06-22T01:21:51;26.30;65.00
1259;DHT22;619;51.472;6.628;2023-06-22T01:29:42;26.30;65.30
1259;DHT22;619;51.472;6.628;2023-06-22T01:32:10;26.20;65.40
1259;DHT22;619;51.472;6.628;2023-06-22T01:34:39;26.20;65.50
1259;DHT22;619;51.472;6.628;2023-06-22T01:37:08;26.20;65.70
1259;DHT22;619;51.472;6.628;2023-06-22T01:39:36;26.10;65.80
1259;DHT22;619;51.472;6.628;2023-06-22T01:42:03;26.10;65.90
1259;DHT22;619;51.472;6.628;2023-06-22T01:44:31;26.10;66.20
1259;DHT22;619;51.472;6.628;2023-06-22T01:47:00;26.10;66.30
1259;DHT22;619;51.472;6.628;2023-06-22T01:49:26;26.10;66.40
1259;DHT22;619;51.472;6.628;2023-06-22T01:51:57;26.10;66.40
1259;DHT22;619;51.472;6.628;2023-06-22T01:54:23;26.10;66.60
1259;DHT22;619;51.472;6.628;2023-06-22T01:56:49;26.10;66.70
1259;DHT22;619;51.472;6.628;2023-06-22T01:59:26;26.10;66.90
1259;DHT22;619;51.472;6.628;2023-06-22T02:02:15;26.10;67.10
1259;DHT22;619;51.472;6.628;2023-06-22T02:04:51;26.10;67.20
1259;DHT22;619;51.472;6.628;2023-06-22T02:07:32;26.10;66.80
1259;DHT22;619;51.472;6.628;2023-06-22T02:09:59;26.10;66.80
1259;DHT22;619;51.472;6.628;2023-06-22T02:12:26;26.10;66.80
1259;DHT22;619;51.472;6.628;2023-06-22T02:14:54;26.10;66.80
1259;DHT22;619;51.472;6.628;2023-06-22T02:17:20;26.00;67.00
1259;DHT22;619;51.472;6.628;2023-06-22T02:19:50;26.00;67.10
1259;DHT22;619;51.472;6.628;2023-06-22T02:22:15;26.00;67.10
1259;DHT22;619;51.472;6.628;2023-06-22T02:24:44;26.00;67.00
1259;DHT22;619;51.472;6.628;2023-06-22T02:27:12;26.00;67.20
1259;DHT22;619;51.472;6.628;2023-06-22T02:32:09;26.00;66.50
1259;DHT22;619;51.472;6.628;2023-06-22T02:34:37;26.00;67.30
1259;DHT22;619;51.472;6.628;2023-06-22T02:37:04;26.00;67.40
1259;DHT22;619;51.472;6.628;2023-06-22T02:39:30;26.00;67.50
1259;DHT22;619;51.472;6.628;2023-06-22T02:41:56;26.00;67.50
1259;DHT22;619;51.472;6.628;2023-06-22T02:44:24;26.00;67.70
1259;DHT22;619;51.472;6.628;2023-06-22T02:46:52;26.00;67.70
1259;DHT22;619;51.472;6.628;2023-06-22T02:49:19;26.00;67.80
1259;DHT22;619;51.472;6.628;2023-06-22T02:51:48;26.00;67.80
1259;DHT22;619;51.472;6.628;2023-06-22T02:54:14;26.00;67.80
1259;DHT22;619;51.472;6.628;2023-06-22T02:56:39;26.00;67.80
1259;DHT22;619;51.472;6.628;2023-06-22T02:59:09;26.00;67.80
1259;DHT22;619;51.472;6.628;2023-06-22T03:01:38;26.00;67.80
1259;DHT22;619;51.472;6.628;2023-06-22T03:04:08;26.00;67.90
1259;DHT22;619;51.472;6.628;2023-06-22T03:06:34;26.00;68.00
1259;DHT22;619;51.472;6.628;2023-06-22T03:09:01;26.00;67.80
1259;DHT22;619;51.472;6.628;2023-06-22T03:11:28;26.00;68.50
1259;DHT22;619;51.472;6.628;2023-06-22T03:13:57;26.10;67.80
1259;DHT22;619;51.472;6.628;2023-06-22T03:16:23;26.10;67.90
1259;DHT22;619;51.472;6.628;2023-06-22T03:18:48;26.10;68.00
1259;DHT22;619;51.472;6.628;2023-06-22T03:21:14;26.00;68.00
1259;DHT22;619;51.472;6.628;2023-06-22T03:23:42;26.00;67.90
1259;DHT22;619;51.472;6.628;2023-06-22T03:26:13;26.00;67.90
1259;DHT22;619;51.472;6.628;2023-06-22T03:28:38;25.90;68.70
1259;DHT22;619;51.472;6.628;2023-06-22T03:31:04;25.90;68.00
1259;DHT22;619;51.472;6.628;2023-06-22T03:33:32;25.90;68.10
1259;DHT22;619;51.472;6.628;2023-06-22T03:36:00;25.90;68.20
1259;DHT22;619;51.472;6.628;2023-06-22T03:38:26;25.90;68.30
1259;DHT22;619;51.472;6.628;2023-06-22T03:40:54;25.80;68.20
1259;DHT22;619;51.472;6.628;2023-06-22T03:43:20;25.80;69.10
1259;DHT22;619;51.472;6.628;2023-06-22T03:45:46;25.70;68.50
1259;DHT22;619;51.472;6.628;2023-06-22T03:48:14;25.70;68.70
1259;DHT22;619;51.472;6.628;2023-06-22T03:50:39;25.70;68.80
1259;DHT22;619;51.472;6.628;2023-06-22T03:53:08;25.60;69.00
1259;DHT22;619;51.472;6.628;2023-06-22T03:55:36;25.70;69.10
1259;DHT22;619;51.472;6.628;2023-06-22T03:58:01;25.70;69.20
1259;DHT22;619;51.472;6.628;2023-06-22T04:00:32;25.60;69.10
1259;DHT22;619;51.472;6.628;2023-06-22T04:03:00;25.60;69.10
1259;DHT22;619;51.472;6.628;2023-06-22T04:05:30;25.60;69.20
1259;DHT22;619;51.472;6.628;2023-06-22T04:07:56;25.70;69.30
1259;DHT22;619;51.472;6.628;2023-06-22T04:10:21;25.70;69.20
1259;DHT22;619;51.472;6.628;2023-06-22T04:12:47;25.70;69.00
1259;DHT22;619;51.472;6.628;2023-06-22T04:15:15;25.80;69.20
1259;DHT22;619;51.472;6.628;2023-06-22T04:17:43;25.80;69.00
1259;DHT22;619;51.472;6.628;2023-06-22T04:20:11;25.90;69.00
1259;DHT22;619;51.472;6.628;2023-06-22T04:22:36;26.00;68.80
1259;DHT22;619;51.472;6.628;2023-06-22T04:25:02;26.10;68.60
1259;DHT22;619;51.472;6.628;2023-06-22T04:27:33;26.10;68.30
1259;DHT22;619;51.472;6.628;2023-06-22T04:30:06;26.20;67.80
1259;DHT22;619;51.472;6.628;2023-06-22T04:32:35;26.20;67.80
1259;DHT22;619;51.472;6.628;2023-06-22T04:35:05;26.30;67.90
1259;DHT22;619;51.472;6.628;2023-06-22T04:37:32;26.30;67.80
1259;DHT22;619;51.472;6.628;2023-06-22T04:39:58;26.30;67.50
1259;DHT22;619;51.472;6.628;2023-06-22T04:42:26;26.30;67.50
1259;DHT22;619;51.472;6.628;2023-06-22T04:44:54;26.40;67.60
1259;DHT22;619;51.472;6.628;2023-06-22T04:47:20;26.30;67.30
1259;DHT22;619;51.472;6.628;2023-06-22T04:49:50;26.30;67.50
1259;DHT22;619;51.472;6.628;2023-06-22T04:52:16;26.30;67.70
1259;DHT22;619;51.472;6.628;2023-06-22T04:54:43;26.30;67.70
1259;DHT22;619;51.472;6.628;2023-06-22T04:57:15;26.40;67.70
1259;DHT22;619;51.472;6.628;2023-06-22T04:59:42;26.40;67.70
1259;DHT22;619;51.472;6.628;2023-06-22T05:02:08;26.40;67.70
1259;DHT22;619;51.472;6.628;2023-06-22T05:04:36;26.50;67.70
1259;DHT22;619;51.472;6.628;2023-06-22T05:07:04;26.50;67.60
1259;DHT22;619;51.472;6.628;2023-06-22T05:09:30;26.50;67.50
1259;DHT22;619;51.472;6.628;2023-06-22T05:11:55;26.60;67.40
1259;DHT22;619;51.472;6.628;2023-06-22T05:14:28;26.60;67.30
1259;DHT22;619;51.472;6.628;2023-06-22T05:16:54;26.60;67.30
1259;DHT22;619;51.472;6.628;2023-06-22T05:19:19;26.50;67.10
1259;DHT22;619;51.472;6.628;2023-06-22T05:21:45;26.50;67.20
1259;DHT22;619;51.472;6.628;2023-06-22T05:24:13;26.50;67.40
1259;DHT22;619;51.472;6.628;2023-06-22T05:26:41;26.50;67.60
1259;DHT22;619;51.472;6.628;2023-06-22T05:29:09;26.40;67.40
1259;DHT22;619;51.472;6.628;2023-06-22T05:31:35;26.40;67.40
1259;DHT22;619;51.472;6.628;2023-06-22T05:34:00;26.50;67.50
1259;DHT22;619;51.472;6.628;2023-06-22T05:36:26;26.40;67.20
1259;DHT22;619;51.472;6.628;2023-06-22T05:38:52;26.40;67.40
1259;DHT22;619;51.472;6.628;2023-06-22T05:41:18;26.40;67.60
1259;DHT22;619;51.472;6.628;2023-06-22T05:43:49;26.40;67.40
1259;DHT22;619;51.472;6.628;2023-06-22T05:46:14;26.40;67.40
1259;DHT22;619;51.472;6.628;2023-06-22T05:48:40;26.50;67.40
1259;DHT22;619;51.472;6.628;2023-06-22T05:51:08;26.50;67.30
1259;DHT22;619;51.472;6.628;2023-06-22T05:53:33;26.50;67.30
1259;DHT22;619;51.472;6.628;2023-06-22T05:55:59;26.50;67.30
1259;DHT22;619;51.472;6.628;2023-06-22T05:58:25;26.50;67.30
1259;DHT22;619;51.472;6.628;2023-06-22T06:00:52;26.50;67.70
1259;DHT22;619;51.472;6.628;2023-06-22T06:03:20;26.50;67.90
1259;DHT22;619;51.472;6.628;2023-06-22T06:05:48;26.50;67.90
1259;DHT22;619;51.472;6.628;2023-06-22T06:08:14;26.50;68.00
1259;DHT22;619;51.472;6.628;2023-06-22T06:10:40;26.50;68.00
1259;DHT22;619;51.472;6.628;2023-06-22T06:13:05;26.50;68.50
1259;DHT22;619;51.472;6.628;2023-06-22T06:15:36;26.40;68.60
1259;DHT22;619;51.472;6.628;2023-06-22T06:18:01;26.40;68.70
1259;DHT22;619;51.472;6.628;2023-06-22T06:20:30;26.50;68.90
1259;DHT22;619;51.472;6.628;2023-06-22T06:22:56;26.40;69.00
1259;DHT22;619;51.472;6.628;2023-06-22T06:25:27;26.40;69.40
1259;DHT22;619;51.472;6.628;2023-06-22T06:27:55;26.30;69.80
1259;DHT22;619;51.472;6.628;2023-06-22T06:30:21;26.30;70.30
1259;DHT22;619;51.472;6.628;2023-06-22T06:32:47;26.20;70.30
1259;DHT22;619;51.472;6.628;2023-06-22T06:35:14;26.20;70.60
1259;DHT22;619;51.472;6.628;2023-06-22T06:37:43;26.20;70.80
1259;DHT22;619;51.472;6.628;2023-06-22T06:40:12;26.20;70.90
1259;DHT22;619;51.472;6.628;2023-06-22T06:42:43;26.20;70.90
1259;DHT22;619;51.472;6.628;2023-06-22T06:45:16;26.20;71.00
1259;DHT22;619;51.472;6.628;2023-06-22T06:47:42;26.20;71.10
1259;DHT22;619;51.472;6.628;2023-06-22T06:50:10;26.30;71.20
1259;DHT22;619;51.472;6.628;2023-06-22T06:52:36;26.30;70.90
1259;DHT22;619;51.472;6.628;2023-06-22T06:55:02;26.20;70.80
1259;DHT22;619;51.472;6.628;2023-06-22T06:57:30;26.30;70.80
1259;DHT22;619;51.472;6.628;2023-06-22T06:59:58;26.20;70.90
1259;DHT22;619;51.472;6.628;2023-06-22T07:02:25;26.30;70.90
1259;DHT22;619;51.472;6.628;2023-06-22T07:04:55;26.30;70.80
1259;DHT22;619;51.472;6.628;2023-06-22T07:07:21;26.40;71.00
1259;DHT22;619;51.472;6.628;2023-06-22T07:09:51;26.40;71.10
1259;DHT22;619;51.472;6.628;2023-06-22T07:12:19;26.60;70.90
1259;DHT22;619;51.472;6.628;2023-06-22T07:14:44;26.60;70.30
1259;DHT22;619;51.472;6.628;2023-06-22T07:17:10;26.70;70.40
1259;DHT22;619;51.472;6.628;2023-06-22T07:19:36;26.80;69.90
1259;DHT22;619;51.472;6.628;2023-06-22T07:22:01;26.80;69.40
1259;DHT22;619;51.472;6.628;2023-06-22T07:24:27;26.80;69.30
1259;DHT22;619;51.472;6.628;2023-06-22T07:26:55;26.90;69.30
1259;DHT22;619;51.472;6.628;2023-06-22T07:29:23;27.00;68.90
1259;DHT22;619;51.472;6.628;2023-06-22T07:31:53;27.00;68.80
1259;DHT22;619;51.472;6.628;2023-06-22T07:34:24;27.10;68.60
1259;DHT22;619;51.472;6.628;2023-06-22T07:36:52;27.10;68.20
1259;DHT22;619;51.472;6.628;2023-06-22T07:39:17;27.20;68.10
1259;DHT22;619;51.472;6.628;2023-06-22T07:41:43;27.20;68.20
1259;DHT22;619;51.472;6.628;2023-06-22T07:44:11;27.20;68.20
1259;DHT22;619;51.472;6.628;2023-06-22T07:46:39;27.30;68.10
1259;DHT22;619;51.472;6.628;2023-06-22T07:49:09;27.30;68.10
1259;DHT22;619;51.472;6.628;2023-06-22T07:51:37;27.40;68.10
1259;DHT22;619;51.472;6.628;2023-06-22T07:54:05;27.40;67.90
1259;DHT22;619;51.472;6.628;2023-06-22T07:56:33;27.40;67.50
1259;DHT22;619;51.472;6.628;2023-06-22T07:59:01;27.50;68.00
1259;DHT22;619;51.472;6.628;2023-06-22T08:01:29;27.60;67.50
1259;DHT22;619;51.472;6.628;2023-06-22T08:03:57;27.60;67.40
1259;DHT22;619;51.472;6.628;2023-06-22T08:06:23;27.50;67.30
1259;DHT22;619;51.472;6.628;2023-06-22T08:08:48;27.50;68.40
1259;DHT22;619;51.472;6.628;2023-06-22T08:11:14;27.50;67.80
1259;DHT22;619;51.472;6.628;2023-06-22T08:13:42;27.50;67.80
1259;DHT22;619;51.472;6.628;2023-06-22T08:16:10;27.50;67.90
1259;DHT22;619;51.472;6.628;2023-06-22T08:18:36;27.40;68.10
1259;DHT22;619;51.472;6.628;2023-06-22T08:21:04;27.50;68.40
1259;DHT22;619;51.472;6.628;2023-06-22T08:23:32;27.50;68.40
1259;DHT22;619;51.472;6.628;2023-06-22T08:26:00;27.50;68.70
1259;DHT22;619;51.472;6.628;2023-06-22T08:28:28;27.60;68.80
1259;DHT22;619;51.472;6.628;2023-06-22T08:30:54;27.60;68.90
1259;DHT22;619;51.472;6.628;2023-06-22T08:33:23;27.70;68.90
1259;DHT22;619;51.472;6.628;2023-06-22T08:35:55;27.80;68.10
1259;DHT22;619;51.472;6.628;2023-06-22T08:38:23;27.70;67.90
1259;DHT22;619;51.472;6.628;2023-06-22T08:40:48;27.70;67.90
1259;DHT22;619;51.472;6.628;2023-06-22T08:43:14;27.70;68.00
1259;DHT22;619;51.472;6.628;2023-06-22T08:45:40;27.70;68.10
1259;DHT22;619;51.472;6.628;2023-06-22T08:48:05;27.70;68.20
1259;DHT22;619;51.472;6.628;2023-06-22T08:50:31;27.70;68.40
1259;DHT22;619;51.472;6.628;2023-06-22T08:52:56;27.70;68.40
1259;DHT22;619;51.472;6.628;2023-06-22T08:55:22;27.70;68.50
1259;DHT22;619;51.472;6.628;2023-06-22T08:57:50;27.70;68.40
1259;DHT22;619;51.472;6.628;2023-06-22T09:00:18;27.70;68.50
1259;DHT22;619;51.472;6.628;2023-06-22T09:02:48;27.80;68.30
1259;DHT22;619;51.472;6.628;2023-06-22T09:05:14;27.90;68.40
1259;DHT22;619;51.472;6.628;2023-06-22T09:07:40;27.90;68.20
1259;DHT22;619;51.472;6.628;2023-06-22T09:10:09;27.90;67.90
1259;DHT22;619;51.472;6.628;2023-06-22T09:12:34;27.90;67.70
1259;DHT22;619;51.472;6.628;2023-06-22T09:15:02;27.90;67.70
1259;DHT22;619;51.472;6.628;2023-06-22T09:17:28;27.90;67.80
1259;DHT22;619;51.472;6.628;2023-06-22T09:19:56;27.80;67.70
1259;DHT22;619;51.472;6.628;2023-06-22T09:22:23;27.80;68.00
1259;DHT22;619;51.472;6.628;2023-06-22T09:24:55;27.80;68.60
1259;DHT22;619;51.472;6.628;2023-06-22T09:27:21;27.80;69.50
1259;DHT22;619;51.472;6.628;2023-06-22T09:29:52;27.90;68.70
1259;DHT22;619;51.472;6.628;2023-06-22T09:32:20;27.90;69.00
1259;DHT22;619;51.472;6.628;2023-06-22T09:34:48;28.00;68.90
1259;DHT22;619;51.472;6.628;2023-06-22T09:37:18;28.10;69.10
1259;DHT22;619;51.472;6.628;2023-06-22T09:39:44;28.20;68.60
1259;DHT22;619;51.472;6.628;2023-06-22T09:42:14;28.40;68.20
1259;DHT22;619;51.472;6.628;2023-06-22T09:44:39;28.60;68.30
1259;DHT22;619;51.472;6.628;2023-06-22T09:47:08;28.60;66.80
1259;DHT22;619;51.472;6.628;2023-06-22T09:49:33;28.70;66.60
1259;DHT22;619;51.472;6.628;2023-06-22T09:51:59;28.80;66.30
1259;DHT22;619;51.472;6.628;2023-06-22T09:54:25;28.80;66.40
1259;DHT22;619;51.472;6.628;2023-06-22T09:56:53;28.80;66.10
1259;DHT22;619;51.472;6.628;2023-06-22T09:59:18;28.90;66.30
1259;DHT22;619;51.472;6.628;2023-06-22T10:01:44;29.00;66.20
1259;DHT22;619;51.472;6.628;2023-06-22T10:04:09;29.10;65.80
1259;DHT22;619;51.472;6.628;2023-06-22T10:06:35;29.30;65.90
1259;DHT22;619;51.472;6.628;2023-06-22T10:09:00;29.60;64.90
1259;DHT22;619;51.472;6.628;2023-06-22T10:11:28;29.80;64.10
1259;DHT22;619;51.472;6.628;2023-06-22T10:13:56;30.20;63.90
1259;DHT22;619;51.472;6.628;2023-06-22T10:16:25;30.50;62.20
1259;DHT22;619;51.472;6.628;2023-06-22T10:19:00;30.80;60.80
1259;DHT22;619;51.472;6.628;2023-06-22T10:21:25;31.00;60.70
1259;DHT22;619;51.472;6.628;2023-06-22T10:23:52;31.20;59.80
1259;DHT22;619;51.472;6.628;2023-06-22T10:26:18;31.40;59.20
1259;DHT22;619;51.472;6.628;2023-06-22T10:28:46;31.50;59.40
1259;DHT22;619;51.472;6.628;2023-06-22T10:31:14;31.70;59.40
1259;DHT22;619;51.472;6.628;2023-06-22T10:33:41;31.80;58.80
1259;DHT22;619;51.472;6.628;2023-06-22T10:36:10;32.10;58.80
1259;DHT22;619;51.472;6.628;2023-06-22T10:38:36;32.20;58.00
1259;DHT22;619;51.472;6.628;2023-06-22T10:41:02;32.30;57.80
1259;DHT22;619;51.472;6.628;2023-06-22T10:43:27;32.40;57.50
1259;DHT22;619;51.472;6.628;2023-06-22T10:45:55;32.40;57.10
1259;DHT22;619;51.472;6.628;2023-06-22T10:48:21;32.30;57.90
1259;DHT22;619;51.472;6.628;2023-06-22T10:50:46;32.20;57.40
1259;DHT22;619;51.472;6.628;2023-06-22T10:53:12;32.10;57.30
1259;DHT22;619;51.472;6.628;2023-06-22T10:55:38;32.00;57.40
1259;DHT22;619;51.472;6.628;2023-06-22T10:58:05;31.80;57.80
1259;DHT22;619;51.472;6.628;2023-06-22T11:00:31;31.70;58.40
1259;DHT22;619;51.472;6.628;2023-06-22T11:02:59;31.50;58.40
1259;DHT22;619;51.472;6.628;2023-06-22T11:05:27;31.40;58.60
1259;DHT22;619;51.472;6.628;2023-06-22T11:07:55;31.20;59.20
1259;DHT22;619;51.472;6.628;2023-06-22T11:10:23;31.00;59.60
1259;DHT22;619;51.472;6.628;2023-06-22T11:12:49;30.90;60.30
1259;DHT22;619;51.472;6.628;2023-06-22T11:15:14;30.80;60.90
1259;DHT22;619;51.472;6.628;2023-06-22T11:17:40;30.70;60.80
1259;DHT22;619;51.472;6.628;2023-06-22T11:20:08;30.70;60.90
1259;DHT22;619;51.472;6.628;2023-06-22T11:22:39;30.70;61.30
1259;DHT22;619;51.472;6.628;2023-06-22T11:25:07;30.70;62.00
1259;DHT22;619;51.472;6.628;2023-06-22T11:27:35;30.70;61.70
1259;DHT22;619;51.472;6.628;2023-06-22T11:30:01;30.80;61.90
1259;DHT22;619;51.472;6.628;2023-06-22T11:32:27;30.80;62.10
1259;DHT22;619;51.472;6.628;2023-06-22T11:34:52;30.80;62.20
1259;DHT22;619;51.472;6.628;2023-06-22T11:37:20;30.80;63.10
1259;DHT22;619;51.472;6.628;2023-06-22T11:39:48;30.80;63.70
1259;DHT22;619;51.472;6.628;2023-06-22T11:42:14;30.80;64.80
1259;DHT22;619;51.472;6.628;2023-06-22T11:44:39;30.70;65.40
1259;DHT22;619;51.472;6.628;2023-06-22T11:47:05;30.60;66.30
1259;DHT22;619;51.472;6.628;2023-06-22T11:49:31;30.50;67.10
1259;DHT22;619;51.472;6.628;2023-06-22T11:51:57;30.30;68.50
1259;DHT22;619;51.472;6.628;2023-06-22T11:54:22;30.00;70.30
1259;DHT22;619;51.472;6.628;2023-06-22T11:56:48;29.70;71.40
1259;DHT22;619;51.472;6.628;2023-06-22T11:59:13;29.40;73.00
1259;DHT22;619;51.472;6.628;2023-06-22T12:01:39;29.10;74.40
1259;DHT22;619;51.472;6.628;2023-06-22T12:04:07;28.90;75.70
1259;DHT22;619;51.472;6.628;2023-06-22T12:06:33;28.70;76.80
1259;DHT22;619;51.472;6.628;2023-06-22T12:09:03;28.60;77.50
1259;DHT22;619;51.472;6.628;2023-06-22T12:11:30;28.50;78.10
1259;DHT22;619;51.472;6.628;2023-06-22T12:14:00;28.30;78.30
1259;DHT22;619;51.472;6.628;2023-06-22T12:16:28;28.20;78.90
1259;DHT22;619;51.472;6.628;2023-06-22T12:18:54;28.10;79.60
1259;DHT22;619;51.472;6.628;2023-06-22T12:21:22;28.00;80.00
1259;DHT22;619;51.472;6.628;2023-06-22T12:23:48;28.00;80.70
1259;DHT22;619;51.472;6.628;2023-06-22T12:26:16;27.90;81.70
1259;DHT22;619;51.472;6.628;2023-06-22T12:28:44;28.00;83.70
1259;DHT22;619;51.472;6.628;2023-06-22T12:31:12;28.20;85.00
1259;DHT22;619;51.472;6.628;2023-06-22T12:33:38;28.50;85.30
1259;DHT22;619;51.472;6.628;2023-06-22T12:36:04;28.90;84.60
1259;DHT22;619;51.472;6.628;2023-06-22T12:38:30;29.20;82.80
1259;DHT22;619;51.472;6.628;2023-06-22T12:40:56;29.40;81.40
1259;DHT22;619;51.472;6.628;2023-06-22T12:43:21;29.50;80.40
1259;DHT22;619;51.472;6.628;2023-06-22T12:45:47;29.70;79.30
1259;DHT22;619;51.472;6.628;2023-06-22T12:48:14;29.80;79.30
1259;DHT22;619;51.472;6.628;2023-06-22T12:50:43;30.00;79.20
1259;DHT22;619;51.472;6.628;2023-06-22T12:53:08;30.20;78.40
1259;DHT22;619;51.472;6.628;2023-06-22T12:55:34;30.40;78.20
1259;DHT22;619;51.472;6.628;2023-06-22T12:58:04;30.60;78.90
1259;DHT22;619;51.472;6.628;2023-06-22T13:00:29;30.90;77.40
1259;DHT22;619;51.472;6.628;2023-06-22T13:02:55;31.10;75.50
1259;DHT22;619;51.472;6.628;2023-06-22T13:05:21;31.20;74.80
1259;DHT22;619;51.472;6.628;2023-06-22T13:07:46;31.20;72.00
1259;DHT22;619;51.472;6.628;2023-06-22T13:10:12;31.10;72.40
1259;DHT22;619;51.472;6.628;2023-06-22T13:12:38;31.10;72.20
1259;DHT22;619;51.472;6.628;2023-06-22T13:15:06;31.10;72.80
1259;DHT22;619;51.472;6.628;2023-06-22T13:17:32;31.20;72.70
1259;DHT22;619;51.472;6.628;2023-06-22T13:19:57;31.20;72.30
1259;DHT22;619;51.472;6.628;2023-06-22T13:22:30;31.20;71.50
1259;DHT22;619;51.472;6.628;2023-06-22T13:24:56;31.10;71.60
1259;DHT22;619;51.472;6.628;2023-06-22T13:27:24;31.10;70.70
1259;DHT22;619;51.472;6.628;2023-06-22T13:29:50;31.00;70.20
1259;DHT22;619;51.472;6.628;2023-06-22T13:32:15;30.90;70.90
1259;DHT22;619;51.472;6.628;2023-06-22T13:34:42;30.80;71.90
1259;DHT22;619;51.472;6.628;2023-06-22T13:37:09;30.70;72.50
1259;DHT22;619;51.472;6.628;2023-06-22T13:39:35;30.60;72.30
1259;DHT22;619;51.472;6.628;2023-06-22T13:42:03;30.50;73.00
1259;DHT22;619;51.472;6.628;2023-06-22T13:44:31;30.50;73.00
1259;DHT22;619;51.472;6.628;2023-06-22T13:46:59;30.30;71.50
1259;DHT22;619;51.472;6.628;2023-06-22T13:49:27;30.10;72.50
1259;DHT22;619;51.472;6.628;2023-06-22T13:51:55;30.00;73.30
1259;DHT22;619;51.472;6.628;2023-06-22T13:54:21;30.00;74.20
1259;DHT22;619;51.472;6.628;2023-06-22T13:56:47;30.00;74.50
1259;DHT22;619;51.472;6.628;2023-06-22T13:59:12;30.00;75.10
1259;DHT22;619;51.472;6.628;2023-06-22T14:01:43;30.10;75.10
1259;DHT22;619;51.472;6.628;2023-06-22T14:04:11;30.20;74.70
1259;DHT22;619;51.472;6.628;2023-06-22T14:06:38;30.20;73.50
1259;DHT22;619;51.472;6.628;2023-06-22T14:09:06;30.10;73.20
1259;DHT22;619;51.472;6.628;2023-06-22T14:11:32;30.10;73.60
1259;DHT22;619;51.472;6.628;2023-06-22T14:13:58;30.00;74.20
1259;DHT22;619;51.472;6.628;2023-06-22T14:16:23;30.00;73.80
1259;DHT22;619;51.472;6.628;2023-06-22T14:18:49;29.90;73.60
1259;DHT22;619;51.472;6.628;2023-06-22T14:21:16;29.70;73.60
1259;DHT22;619;51.472;6.628;2023-06-22T14:23:44;29.60;74.30
1259;DHT22;619;51.472;6.628;2023-06-22T14:26:16;29.50;74.90
1259;DHT22;619;51.472;6.628;2023-06-22T14:28:48;29.50;75.00
1259;DHT22;619;51.472;6.628;2023-06-22T14:31:19;29.40;74.80
1259;DHT22;619;51.472;6.628;2023-06-22T14:33:50;29.40;74.80
1259;DHT22;619;51.472;6.628;2023-06-22T14:36:19;29.30;74.80
1259;DHT22;619;51.472;6.628;2023-06-22T14:38:44;29.30;74.40
1259;DHT22;619;51.472;6.628;2023-06-22T14:41:13;29.20;74.30
1259;DHT22;619;51.472;6.628;2023-06-22T14:43:46;29.20;74.20
1259;DHT22;619;51.472;6.628;2023-06-22T14:46:17;29.10;75.00
1259;DHT22;619;51.472;6.628;2023-06-22T14:48:47;29.10;74.10
1259;DHT22;619;51.472;6.628;2023-06-22T14:51:15;29.00;74.00
1259;DHT22;619;51.472;6.628;2023-06-22T14:53:44;29.00;74.70
1259;DHT22;619;51.472;6.628;2023-06-22T14:56:12;28.90;74.10
1259;DHT22;619;51.472;6.628;2023-06-22T14:58:43;28.90;74.60
1259;DHT22;619;51.472;6.628;2023-06-22T15:01:16;28.90;74.80
1259;DHT22;619;51.472;6.628;2023-06-22T15:03:42;28.80;74.40
1259;DHT22;619;51.472;6.628;2023-06-22T15:06:08;28.80;74.50
1259;DHT22;619;51.472;6.628;2023-06-22T15:08:34;28.70;73.80
1259;DHT22;619;51.472;6.628;2023-06-22T15:11:00;28.60;73.50
1259;DHT22;619;51.472;6.628;2023-06-22T15:13:30;28.50;74.00
1259;DHT22;619;51.472;6.628;2023-06-22T15:16:04;28.30;74.80
1259;DHT22;619;51.472;6.628;2023-06-22T15:18:30;28.30;75.30
1259;DHT22;619;51.472;6.628;2023-06-22T15:20:55;28.20;75.30
1259;DHT22;619;51.472;6.628;2023-06-22T15:23:21;28.30;75.50
1259;DHT22;619;51.472;6.628;2023-06-22T15:25:51;28.30;76.20
1259;DHT22;619;51.472;6.628;2023-06-22T15:28:17;28.40;76.10
1259;DHT22;619;51.472;6.628;2023-06-22T15:30:46;28.40;75.60
1259;DHT22;619;51.472;6.628;2023-06-22T15:33:13;28.30;75.60
1259;DHT22;619;51.472;6.628;2023-06-22T15:35:39;28.30;75.90
1259;DHT22;619;51.472;6.628;2023-06-22T15:38:07;28.20;75.70
1259;DHT22;619;51.472;6.628;2023-06-22T15:40:35;28.20;75.90
1259;DHT22;619;51.472;6.628;2023-06-22T15:43:00;28.20;76.20
1259;DHT22;619;51.472;6.628;2023-06-22T15:45:28;28.10;76.10
1259;DHT22;619;51.472;6.628;2023-06-22T15:47:57;28.00;76.20
1259;DHT22;619;51.472;6.628;2023-06-22T15:50:22;28.00;76.40
1259;DHT22;619;51.472;6.628;2023-06-22T15:52:48;27.90;76.40
1259;DHT22;619;51.472;6.628;2023-06-22T15:55:18;27.90;76.20
1259;DHT22;619;51.472;6.628;2023-06-22T15:57:44;27.80;76.60
1259;DHT22;619;51.472;6.628;2023-06-22T16:00:18;27.70;76.60
1259;DHT22;619;51.472;6.628;2023-06-22T16:02:45;27.70;77.10
1259;DHT22;619;51.472;6.628;2023-06-22T16:05:12;27.70;77.80
1259;DHT22;619;51.472;6.628;2023-06-22T16:07:38;27.50;78.30
1259;DHT22;619;51.472;6.628;2023-06-22T16:10:04;27.50;78.90
1259;DHT22;619;51.472;6.628;2023-06-22T16:12:34;27.30;79.20
1259;DHT22;619;51.472;6.628;2023-06-22T16:15:02;27.10;79.90
1259;DHT22;619;51.472;6.628;2023-06-22T16:17:31;26.90;80.60
1259;DHT22;619;51.472;6.628;2023-06-22T16:19:56;26.70;81.40
1259;DHT22;619;51.472;6.628;2023-06-22T16:22:25;26.50;82.10
1259;DHT22;619;51.472;6.628;2023-06-22T16:24:51;26.30;83.10
1259;DHT22;619;51.472;6.628;2023-06-22T16:27:18;26.00;83.80
1259;DHT22;619;51.472;6.628;2023-06-22T16:29:45;25.80;84.60